createdAt,value
2023-06-23T00:00:38.856Z,90.70
2023-06-23T00:01:38.954Z,90.16
2023-06-23T00:02:38.954Z,89.20
2023-06-23T00:03:38.971Z,87.66
2023-06-23T00:04:38.967Z,76.92
2023-06-23T00:05:39.021Z,70.96
2023-06-23T00:06:39.069Z,68.02
2023-06-23T00:07:39.076Z,65.82
2023-06-23T00:08:39.062Z,67.19
2023-06-23T00:09:39.106Z,65.07
2023-06-23T00:10:39.112Z,62.22
2023-06-23T00:11:39.124Z,59.89
2023-06-23T00:12:39.126Z,59.06
2023-06-23T00:13:39.136Z,61.44
2023-06-23T00:14:39.136Z,61.38
2023-06-23T00:15:39.148Z,62.15
2023-06-23T00:16:39.152Z,63.47
2023-06-23T00:17:39.144Z,63.40
2023-06-23T00:18:39.139Z,65.74
2023-06-23T00:19:39.162Z,66.99
2023-06-23T00:20:39.176Z,67.63
2023-06-23T00:21:39.187Z,69.63
2023-06-23T00:22:39.180Z,70.63
2023-06-23T00:23:39.198Z,69.66
2023-06-23T00:24:39.224Z,69.55
2023-06-23T00:25:39.241Z,70.97
2023-06-23T00:26:39.274Z,73.54
2023-06-23T00:27:39.294Z,74.74
2023-06-23T00:28:39.312Z,75.64
2023-06-23T00:29:39.338Z,73.32
2023-06-23T00:30:39.369Z,75.12
2023-06-23T00:31:39.436Z,76.02
2023-06-23T00:32:39.394Z,75.41
2023-06-23T00:33:39.348Z,79.20
2023-06-23T00:34:39.378Z,77.29
2023-06-23T00:35:39.373Z,80.32
2023-06-23T00:36:39.362Z,79.48
2023-06-23T00:37:39.387Z,78.88
2023-06-23T00:38:39.463Z,80.75
2023-06-23T00:39:39.359Z,83.91
2023-06-23T00:40:39.379Z,83.84
2023-06-23T00:41:39.421Z,82.16
2023-06-23T00:42:39.410Z,82.74
2023-06-23T00:43:39.414Z,83.82
2023-06-23T00:44:39.436Z,82.85
2023-06-23T00:45:39.457Z,86.11
2023-06-23T00:46:39.451Z,89.30
2023-06-23T00:47:39.494Z,89.33
2023-06-23T00:48:39.463Z,89.95
2023-06-23T00:49:39.529Z,91.18
2023-06-23T00:50:39.520Z,91.51
2023-06-23T00:51:39.513Z,89.04
2023-06-23T00:52:39.502Z,84.86
2023-06-23T00:53:39.513Z,85.43
2023-06-23T00:54:39.533Z,84.19
2023-06-23T00:55:39.521Z,85.14
2023-06-23T00:56:39.516Z,88.71
2023-06-23T00:57:39.539Z,86.52
2023-06-23T00:58:39.540Z,86.02
2023-06-23T00:59:39.489Z,86.81
2023-06-23T01:00:39.505Z,86.87
2023-06-23T01:01:39.518Z,89.68
2023-06-23T01:02:39.633Z,87.74
2023-06-23T01:03:39.555Z,89.94
2023-06-23T01:04:39.635Z,92.10
2023-06-23T01:05:39.495Z,89.53
2023-06-23T01:06:39.530Z,87.59
2023-06-23T01:07:39.494Z,86.92
2023-06-23T01:08:39.527Z,88.38
2023-06-23T01:09:39.510Z,87.89
2023-06-23T01:10:39.518Z,84.46
2023-06-23T01:11:39.510Z,87.96
2023-06-23T01:12:39.535Z,88.74
2023-06-23T01:13:39.529Z,87.68
2023-06-23T01:14:39.543Z,89.50
2023-06-23T01:15:39.533Z,88.32
2023-06-23T01:16:39.569Z,89.90
2023-06-23T01:17:39.667Z,90.16
2023-06-23T01:18:39.585Z,85.65
2023-06-23T01:19:39.641Z,84.00
2023-06-23T01:20:39.636Z,84.85
2023-06-23T01:21:39.642Z,84.76
2023-06-23T01:22:39.697Z,87.49
2023-06-23T01:23:39.711Z,83.70
2023-06-23T01:24:39.716Z,84.86
2023-06-23T01:25:39.750Z,87.89
2023-06-23T01:26:39.732Z,87.18
2023-06-23T01:27:39.744Z,86.16
2023-06-23T01:28:39.760Z,86.65
2023-06-23T01:29:39.785Z,85.61
2023-06-23T01:30:39.826Z,86.42
2023-06-23T01:31:39.897Z,85.66
2023-06-23T01:32:39.887Z,84.98
2023-06-23T01:33:39.894Z,83.00
2023-06-23T01:34:39.931Z,82.50
2023-06-23T01:35:39.960Z,82.81
2023-06-23T01:36:40.003Z,82.80
2023-06-23T01:37:40.023Z,84.51
2023-06-23T01:38:40.051Z,81.03
2023-06-23T01:39:40.073Z,79.32
2023-06-23T01:40:40.086Z,78.97
2023-06-23T01:41:40.092Z,78.55
2023-06-23T01:42:40.143Z,77.63
2023-06-23T01:43:40.152Z,78.43
2023-06-23T01:44:40.183Z,75.70
2023-06-23T01:45:40.201Z,80.09
2023-06-23T01:46:40.323Z,78.24
2023-06-23T01:47:40.247Z,77.06
2023-06-23T01:48:40.242Z,78.51
2023-06-23T01:49:40.273Z,78.34
2023-06-23T01:50:40.282Z,76.80
2023-06-23T01:51:40.299Z,77.92
2023-06-23T01:52:40.348Z,80.90
2023-06-23T01:53:40.376Z,79.86
2023-06-23T01:54:40.399Z,76.79
2023-06-23T01:55:40.430Z,78.06
2023-06-23T01:56:40.488Z,79.18
2023-06-23T01:57:40.474Z,78.96
2023-06-23T01:58:40.521Z,77.60
2023-06-23T01:59:40.555Z,76.34
2023-06-23T02:00:40.620Z,74.67
2023-06-23T02:01:40.794Z,74.46
2023-06-23T02:02:40.729Z,75.35
2023-06-23T02:03:40.880Z,75.54
2023-06-23T02:04:40.696Z,75.85
2023-06-23T02:05:40.715Z,76.89
2023-06-23T02:06:40.800Z,74.21
2023-06-23T02:07:40.785Z,76.47
2023-06-23T02:08:40.796Z,73.69
2023-06-23T02:09:40.845Z,73.85
2023-06-23T02:10:40.883Z,74.39
2023-06-23T02:11:40.940Z,70.27
2023-06-23T02:12:40.948Z,68.87
2023-06-23T02:13:40.989Z,65.91
2023-06-23T02:14:41.044Z,65.95
2023-06-23T02:15:41.087Z,63.61
2023-06-23T02:16:41.113Z,63.74
2023-06-23T02:17:41.149Z,60.27
2023-06-23T02:18:41.174Z,57.65
2023-06-23T02:19:41.204Z,57.75
2023-06-23T02:20:41.250Z,57.25
2023-06-23T02:21:41.260Z,53.86
2023-06-23T02:22:41.310Z,54.80
2023-06-23T02:23:41.357Z,53.95
2023-06-23T02:24:41.372Z,54.02
2023-06-23T02:25:41.413Z,55.05
2023-06-23T02:26:41.434Z,54.21
2023-06-23T02:27:41.461Z,53.43
2023-06-23T02:28:41.492Z,50.64
2023-06-23T02:29:41.559Z,54.49
2023-06-23T02:30:41.603Z,53.67
2023-06-23T02:31:41.726Z,51.33
2023-06-23T02:32:41.790Z,53.61
2023-06-23T02:33:41.782Z,52.31
2023-06-23T02:34:41.824Z,51.42
2023-06-23T02:35:41.866Z,51.14
2023-06-23T02:36:41.930Z,51.52
2023-06-23T02:37:41.975Z,52.10
2023-06-23T02:38:42.031Z,50.49
2023-06-23T02:39:42.080Z,50.50
2023-06-23T02:40:42.138Z,52.29
2023-06-23T02:41:42.162Z,51.23
2023-06-23T02:42:42.228Z,50.92
2023-06-23T02:43:42.282Z,50.76
2023-06-23T02:44:42.320Z,52.03
2023-06-23T02:45:42.456Z,52.22
2023-06-23T02:46:42.436Z,50.00
2023-06-23T02:47:42.502Z,50.02
2023-06-23T02:48:42.563Z,50.00
2023-06-23T02:49:42.631Z,53.18
2023-06-23T02:50:42.681Z,55.01
2023-06-23T02:51:42.711Z,50.55
2023-06-23T02:52:42.739Z,51.65
2023-06-23T02:53:42.797Z,53.09
2023-06-23T02:54:42.839Z,51.35
2023-06-23T02:55:42.848Z,51.62
2023-06-23T02:56:42.893Z,50.74
2023-06-23T02:57:42.951Z,54.34
2023-06-23T02:58:42.965Z,54.60
2023-06-23T02:59:43.084Z,55.31
2023-06-23T03:00:43.055Z,53.61
2023-06-23T03:01:43.164Z,53.94
2023-06-23T03:02:43.267Z,57.39
2023-06-23T03:03:43.240Z,58.64
2023-06-23T03:04:43.298Z,62.45
2023-06-23T03:05:43.290Z,62.57
2023-06-23T03:06:43.335Z,65.79
2023-06-23T03:07:43.390Z,63.86
2023-06-23T03:08:43.411Z,66.61
2023-06-23T03:09:43.462Z,66.93
2023-06-23T03:10:43.514Z,68.86
2023-06-23T03:11:43.531Z,65.47
2023-06-23T03:12:43.587Z,62.60
2023-06-23T03:13:43.617Z,62.61
2023-06-23T03:14:43.690Z,62.18
2023-06-23T03:15:43.705Z,64.24
2023-06-23T03:16:43.778Z,65.84
2023-06-23T03:17:43.803Z,66.23
2023-06-23T03:18:43.861Z,71.80
2023-06-23T03:19:43.926Z,74.95
2023-06-23T03:20:43.940Z,76.10
2023-06-23T03:21:43.981Z,78.75
2023-06-23T03:22:44.030Z,80.04
2023-06-23T03:23:44.041Z,84.87
2023-06-23T03:24:44.070Z,84.43
2023-06-23T03:25:44.146Z,87.19
2023-06-23T03:26:44.201Z,88.10
2023-06-23T03:27:44.243Z,91.09
2023-06-23T03:28:44.348Z,92.54
2023-06-23T03:29:44.381Z,96.70
2023-06-23T03:30:44.534Z,97.01
2023-06-23T03:31:44.462Z,99.51
2023-06-23T03:32:44.561Z,102.14
2023-06-23T03:33:44.544Z,105.82
2023-06-23T03:34:44.582Z,105.41
2023-06-23T03:35:44.665Z,109.19
2023-06-23T03:36:44.627Z,108.82
2023-06-23T03:37:44.682Z,110.33
2023-06-23T03:38:44.770Z,114.90
2023-06-23T03:39:44.792Z,118.66
2023-06-23T03:40:44.854Z,122.94
2023-06-23T03:41:44.854Z,125.79
2023-06-23T03:42:44.900Z,128.69
2023-06-23T03:43:44.931Z,130.05
2023-06-23T03:44:44.955Z,130.42
2023-06-23T03:45:44.969Z,128.83
2023-06-23T03:46:45.047Z,130.00
2023-06-23T03:47:45.119Z,133.05
2023-06-23T03:48:44.978Z,132.29
2023-06-23T03:49:44.992Z,133.12
2023-06-23T03:50:44.971Z,131.37
2023-06-23T03:51:45.023Z,128.70
2023-06-23T03:52:45.036Z,128.84
2023-06-23T03:53:45.073Z,128.88
2023-06-23T03:54:45.106Z,127.19
2023-06-23T03:55:45.139Z,130.87
2023-06-23T03:56:45.142Z,130.24
2023-06-23T03:57:45.166Z,129.69
2023-06-23T03:58:45.173Z,134.35
2023-06-23T03:59:45.191Z,128.98
2023-06-23T04:00:45.200Z,130.54
2023-06-23T04:01:45.266Z,130.84
2023-06-23T04:02:45.286Z,129.61
2023-06-23T04:03:45.275Z,130.70
2023-06-23T04:04:45.216Z,132.04
2023-06-23T04:05:45.202Z,133.24
2023-06-23T04:06:45.215Z,129.75
2023-06-23T04:07:45.251Z,128.69
2023-06-23T04:08:45.324Z,131.14
2023-06-23T04:09:45.359Z,131.73
2023-06-23T04:10:45.416Z,133.12
2023-06-23T04:11:45.413Z,132.70
2023-06-23T04:12:45.431Z,133.41
2023-06-23T04:13:45.431Z,131.94
2023-06-23T04:14:45.446Z,130.52
2023-06-23T04:15:45.449Z,127.51
2023-06-23T04:16:45.420Z,128.44
2023-06-23T04:17:45.481Z,129.40
2023-06-23T04:18:45.439Z,130.58
2023-06-23T04:19:45.450Z,133.10
2023-06-23T04:20:45.425Z,134.65
2023-06-23T04:21:45.442Z,133.67
2023-06-23T04:22:45.492Z,132.93
2023-06-23T04:23:45.427Z,128.69
2023-06-23T04:24:45.443Z,129.44
2023-06-23T04:25:45.405Z,127.81
2023-06-23T04:26:45.457Z,126.15
2023-06-23T04:27:45.419Z,124.14
2023-06-23T04:28:45.436Z,125.35
2023-06-23T04:29:45.420Z,122.80
2023-06-23T04:30:45.449Z,122.75
2023-06-23T04:31:45.431Z,121.57
2023-06-23T04:32:45.587Z,125.76
2023-06-23T04:33:45.396Z,125.77
2023-06-23T04:34:45.410Z,125.21
2023-06-23T04:35:45.401Z,123.94
2023-06-23T04:36:45.405Z,124.17
2023-06-23T04:37:45.431Z,123.04
2023-06-23T04:38:45.410Z,124.15
2023-06-23T04:39:45.399Z,122.77
2023-06-23T04:40:45.380Z,121.32
2023-06-23T04:41:45.404Z,122.35
2023-06-23T04:42:45.411Z,121.01
2023-06-23T04:43:45.439Z,121.53
2023-06-23T04:44:45.395Z,125.13
2023-06-23T04:45:45.459Z,125.78
2023-06-23T04:46:45.461Z,130.03
2023-06-23T04:47:45.468Z,127.31
2023-06-23T04:48:45.476Z,124.03
2023-06-23T04:49:45.520Z,126.22
2023-06-23T04:50:45.506Z,126.38
2023-06-23T04:51:45.532Z,130.04
2023-06-23T04:52:45.516Z,130.49
2023-06-23T04:53:45.506Z,130.70
2023-06-23T04:54:45.529Z,132.36
2023-06-23T04:55:45.531Z,132.56
2023-06-23T04:56:45.536Z,134.76
2023-06-23T04:57:45.514Z,136.15
2023-06-23T04:58:45.562Z,137.79
2023-06-23T04:59:45.552Z,137.14
2023-06-23T05:00:45.515Z,137.66
2023-06-23T05:01:45.723Z,137.65
2023-06-23T05:02:45.599Z,136.72
2023-06-23T05:03:45.619Z,136.37
2023-06-23T05:04:45.597Z,137.73
2023-06-23T05:05:45.564Z,137.09
2023-06-23T05:06:45.583Z,137.20
2023-06-23T05:07:45.584Z,136.67
2023-06-23T05:08:45.596Z,136.66
2023-06-23T05:09:45.581Z,138.11
2023-06-23T05:10:45.607Z,140.41
2023-06-23T05:11:45.641Z,139.50
2023-06-23T05:12:45.673Z,140.70
2023-06-23T05:13:45.690Z,139.75
2023-06-23T05:14:45.699Z,142.00
2023-06-23T05:15:45.721Z,141.66
2023-06-23T05:16:45.759Z,142.89
2023-06-23T05:17:45.795Z,141.84
2023-06-23T05:18:45.777Z,141.98
2023-06-23T05:19:45.798Z,141.39
2023-06-23T05:20:45.811Z,142.88
2023-06-23T05:21:45.822Z,142.39
2023-06-23T05:22:45.843Z,143.18
2023-06-23T05:23:52.864Z,141.40
2023-06-23T05:24:46.855Z,141.48
2023-06-23T05:25:45.845Z,141.24
2023-06-23T05:26:45.854Z,138.00
2023-06-23T05:27:45.835Z,139.87
2023-06-23T05:28:45.834Z,142.00
2023-06-23T05:29:45.788Z,141.62
2023-06-23T05:30:45.842Z,139.63
2023-06-23T05:31:45.851Z,140.05
2023-06-23T05:32:45.933Z,139.63
2023-06-23T05:33:45.774Z,138.15
2023-06-23T05:34:45.763Z,139.59
2023-06-23T05:35:47.998Z,139.32
2023-06-23T05:36:45.772Z,140.28
2023-06-23T05:37:45.737Z,144.03
2023-06-23T05:38:45.753Z,145.79
2023-06-23T05:39:45.746Z,149.72
2023-06-23T05:40:45.733Z,149.33
2023-06-23T05:41:45.747Z,152.48
2023-06-23T05:42:45.722Z,155.83
2023-06-23T05:43:45.708Z,162.19
2023-06-23T05:44:45.695Z,167.03
2023-06-23T05:45:45.905Z,168.83
2023-06-23T05:46:45.774Z,173.06
2023-06-23T05:47:45.707Z,175.84
2023-06-23T05:48:45.704Z,184.64
2023-06-23T05:49:48.133Z,192.78
2023-06-23T05:50:45.799Z,193.05
2023-06-23T05:51:45.817Z,194.21
2023-06-23T05:52:45.786Z,197.09
2023-06-23T05:53:45.783Z,202.60
2023-06-23T05:54:45.774Z,214.12
2023-06-23T05:55:45.795Z,199.72
2023-06-23T05:56:45.840Z,199.49
2023-06-23T05:57:45.828Z,200.00
2023-06-23T05:58:45.830Z,198.20
2023-06-23T05:59:45.832Z,199.43
2023-06-23T06:00:45.877Z,197.38
2023-06-23T06:01:45.830Z,196.03
2023-06-23T06:02:45.892Z,196.90
2023-06-23T06:03:45.985Z,195.70
2023-06-23T06:04:45.870Z,191.02
2023-06-23T06:05:45.826Z,192.71
2023-06-23T06:06:45.827Z,192.72
2023-06-23T06:07:45.856Z,191.14
2023-06-23T06:08:45.855Z,190.24
2023-06-23T06:09:45.854Z,189.01
2023-06-23T06:10:45.832Z,192.39
2023-06-23T06:11:45.802Z,190.86
2023-06-23T06:12:46.836Z,193.42
2023-06-23T06:13:45.837Z,194.45
2023-06-23T06:14:45.858Z,195.56
2023-06-23T06:15:45.818Z,199.65
2023-06-23T06:16:45.836Z,198.77
2023-06-23T06:17:45.874Z,197.95
2023-06-23T06:18:45.836Z,195.27
2023-06-23T06:19:45.877Z,191.43
2023-06-23T06:20:45.845Z,185.76
2023-06-23T06:21:45.842Z,186.05
2023-06-23T06:22:45.883Z,187.32
2023-06-23T06:23:45.924Z,187.97
2023-06-23T06:24:46.373Z,189.08
2023-06-23T06:25:46.056Z,191.23
2023-06-23T06:26:46.090Z,190.78
2023-06-23T06:27:46.105Z,188.76
2023-06-23T06:28:46.162Z,194.30
2023-06-23T06:29:46.230Z,195.96
2023-06-23T06:30:46.258Z,196.26
2023-06-23T06:31:46.305Z,193.97
2023-06-23T06:32:46.345Z,198.13
2023-06-23T06:33:46.390Z,198.22
2023-06-23T06:34:46.440Z,197.10
2023-06-23T06:35:46.485Z,195.70
2023-06-23T06:36:46.549Z,194.74
2023-06-23T06:37:46.575Z,192.81
2023-06-23T06:38:46.638Z,190.89
2023-06-23T06:39:46.669Z,189.18
2023-06-23T06:40:46.712Z,190.27
2023-06-23T06:41:46.746Z,190.13
2023-06-23T06:42:46.770Z,191.12
2023-06-23T06:43:46.815Z,189.61
2023-06-23T06:44:46.857Z,189.17
2023-06-23T06:45:46.893Z,191.87
2023-06-23T06:46:47.019Z,198.31
2023-06-23T06:47:47.052Z,200.00
2023-06-23T06:48:47.097Z,200.00
2023-06-23T06:49:47.196Z,198.24
2023-06-23T06:50:47.216Z,198.17
2023-06-23T06:51:47.248Z,195.38
2023-06-23T06:52:47.267Z,196.11
2023-06-23T06:53:47.281Z,198.16
2023-06-23T06:54:47.283Z,196.47
2023-06-23T06:55:47.251Z,198.56
2023-06-23T06:56:47.288Z,198.83
2023-06-23T06:57:47.346Z,198.57
2023-06-23T06:58:47.380Z,199.02
2023-06-23T06:59:47.431Z,198.72
2023-06-23T07:00:47.536Z,197.42
2023-06-23T07:01:47.707Z,198.68
2023-06-23T07:02:47.647Z,199.04
2023-06-23T07:03:47.738Z,201.66
2023-06-23T07:04:47.734Z,197.73
2023-06-23T07:05:47.773Z,195.98
2023-06-23T07:06:47.797Z,197.37
2023-06-23T07:07:47.902Z,198.41
2023-06-23T07:08:47.897Z,198.91
2023-06-23T07:09:47.962Z,198.58
2023-06-23T07:10:48.007Z,196.04
2023-06-23T07:11:48.047Z,194.77
2023-06-23T07:12:48.083Z,196.99
2023-06-23T07:13:48.140Z,197.14
2023-06-23T07:14:48.188Z,198.82
2023-06-23T07:15:48.278Z,198.96
2023-06-23T07:16:48.280Z,198.04
2023-06-23T07:17:48.369Z,199.68
2023-06-23T07:18:48.387Z,200.50
2023-06-23T07:19:48.429Z,199.54
2023-06-23T07:20:48.509Z,200.00
2023-06-23T07:21:48.514Z,199.18
2023-06-23T07:22:48.591Z,199.34
2023-06-23T07:23:48.627Z,199.91
2023-06-23T07:24:48.691Z,199.74
2023-06-23T07:25:48.761Z,199.17
2023-06-23T07:26:48.781Z,199.81
2023-06-23T07:27:48.865Z,199.93
2023-06-23T07:28:48.914Z,199.34
2023-06-23T07:29:48.957Z,199.95
2023-06-23T07:30:49.199Z,200.15
2023-06-23T07:31:49.151Z,198.86
2023-06-23T07:32:49.195Z,200.00
2023-06-23T07:33:49.486Z,198.19
2023-06-23T07:34:49.242Z,199.59
2023-06-23T07:35:49.317Z,197.21
2023-06-23T07:36:49.344Z,198.48
2023-06-23T07:37:49.426Z,197.25
2023-06-23T07:38:49.455Z,199.94
2023-06-23T07:39:49.492Z,198.27
2023-06-23T07:40:49.463Z,195.93
2023-06-23T07:41:50.262Z,198.20
2023-06-23T07:42:49.713Z,198.07
2023-06-23T07:43:49.607Z,196.78
2023-06-23T07:44:49.678Z,193.17
2023-06-23T07:45:49.839Z,187.88
2023-06-23T07:46:49.818Z,182.75
2023-06-23T07:47:49.864Z,181.86
2023-06-23T07:48:49.876Z,184.71
2023-06-23T07:49:49.998Z,180.74
2023-06-23T07:50:50.004Z,180.42
2023-06-23T07:51:50.045Z,183.80
2023-06-23T07:52:50.121Z,182.37
2023-06-23T07:54:05.329Z,180.80
2023-06-23T07:54:51.194Z,180.25
2023-06-23T07:55:50.171Z,175.79
2023-06-23T07:56:50.160Z,173.33
2023-06-23T07:57:50.141Z,172.20
2023-06-23T07:58:50.139Z,167.52
2023-06-23T07:59:50.132Z,167.19
2023-06-23T08:00:50.125Z,167.40
2023-06-23T08:01:50.105Z,166.00
2023-06-23T08:02:50.290Z,164.39
2023-06-23T08:03:50.199Z,166.13
2023-06-23T08:04:50.228Z,165.85
2023-06-23T08:05:50.371Z,164.89
2023-06-23T08:06:50.313Z,163.93
2023-06-23T08:07:50.390Z,163.20
2023-06-23T08:08:50.422Z,160.89
2023-06-23T08:09:50.465Z,161.82
2023-06-23T08:10:50.491Z,159.36
2023-06-23T08:11:50.499Z,160.60
2023-06-23T08:12:50.568Z,160.96
2023-06-23T08:13:50.611Z,158.82
2023-06-23T08:14:50.700Z,159.00
2023-06-23T08:15:50.764Z,157.48
2023-06-23T08:16:50.862Z,156.76
2023-06-23T08:17:51.715Z,157.19
2023-06-23T08:18:50.853Z,155.40
2023-06-23T08:19:50.920Z,156.59
2023-06-23T08:20:50.922Z,155.42
2023-06-23T08:21:51.019Z,153.45
2023-06-23T08:22:50.920Z,151.64
2023-06-23T08:23:50.950Z,153.85
2023-06-23T08:24:51.166Z,154.09
2023-06-23T08:25:50.990Z,153.01
2023-06-23T08:26:51.020Z,154.14
2023-06-23T08:27:51.097Z,153.66
2023-06-23T08:28:51.146Z,154.56
2023-06-23T08:29:51.237Z,155.40
2023-06-23T08:30:51.386Z,158.04
2023-06-23T08:31:51.447Z,156.51
2023-06-23T08:32:51.437Z,158.76
2023-06-23T08:33:51.464Z,157.94
2023-06-23T08:34:51.558Z,158.64
2023-06-23T08:35:51.674Z,159.78
2023-06-23T08:36:51.622Z,160.86
2023-06-23T08:37:51.690Z,157.33
2023-06-23T08:38:51.766Z,156.25
2023-06-23T08:39:51.849Z,154.43
2023-06-23T08:40:51.853Z,151.54
2023-06-23T08:41:51.888Z,150.13
2023-06-23T08:42:51.899Z,148.70
2023-06-23T08:43:51.880Z,143.49
2023-06-23T08:44:51.930Z,142.95
2023-06-23T08:45:51.901Z,142.59
2023-06-23T08:47:04.759Z,140.78
2023-06-23T08:47:53.044Z,140.80
2023-06-23T08:48:51.936Z,140.63
2023-06-23T08:49:51.892Z,139.65
2023-06-23T08:51:46.257Z,50.00
2023-06-23T08:52:46.265Z,50.00
2023-06-23T08:53:46.272Z,50.00
2023-06-23T08:54:46.233Z,50.00
2023-06-23T08:55:46.255Z,50.00
2023-06-23T08:56:46.213Z,50.92
2023-06-23T08:57:46.226Z,50.00
2023-06-23T08:58:46.266Z,53.75
2023-06-23T08:59:46.228Z,52.83
2023-06-23T09:00:46.229Z,51.00
2023-06-23T09:01:46.256Z,50.00
2023-06-23T09:02:46.301Z,50.00
2023-06-23T09:03:46.191Z,50.99
2023-06-23T09:04:46.171Z,52.21
2023-06-23T09:05:46.170Z,50.23
2023-06-23T09:06:46.138Z,52.74
2023-06-23T09:07:46.151Z,50.00
2023-06-23T09:08:46.217Z,52.94
2023-06-23T09:09:46.232Z,50.63
2023-06-23T09:10:46.223Z,52.21
2023-06-23T09:11:46.198Z,51.46
2023-06-23T09:12:46.188Z,53.17
2023-06-23T09:13:46.190Z,53.42
2023-06-23T09:14:46.191Z,51.59
2023-06-23T09:16:00.840Z,50.77
2023-06-23T09:16:47.206Z,50.80
2023-06-23T09:17:46.236Z,47.04
2023-06-23T09:18:46.180Z,43.41
2023-06-23T09:19:46.159Z,42.18
2023-06-23T09:20:47.113Z,38.17
2023-06-23T09:21:46.198Z,50.00
2023-06-23T09:22:46.115Z,50.45
2023-06-23T09:23:46.125Z,51.93
2023-06-23T09:24:46.121Z,51.13
2023-06-23T09:25:46.117Z,50.00
2023-06-23T09:26:46.120Z,52.12
2023-06-23T09:27:46.139Z,51.80
2023-06-23T09:28:46.155Z,51.81
2023-06-23T09:29:46.155Z,53.55
2023-06-23T09:30:46.159Z,55.13
2023-06-23T09:31:46.148Z,55.52
2023-06-23T09:32:46.217Z,57.69
2023-06-23T09:33:46.185Z,58.36
2023-06-23T09:34:46.201Z,62.34
2023-06-23T09:35:46.218Z,67.19
2023-06-23T09:36:46.218Z,64.79
2023-06-23T09:37:46.217Z,67.10
2023-06-23T09:38:46.246Z,70.06
2023-06-23T09:39:46.259Z,69.15
2023-06-23T09:40:46.272Z,71.32
2023-06-23T09:41:52.538Z,71.95
2023-06-23T09:42:47.297Z,72.31
2023-06-23T09:43:46.290Z,73.71
2023-06-23T09:44:46.292Z,78.48
2023-06-23T09:45:46.243Z,92.47
2023-06-23T09:46:46.251Z,102.66
2023-06-23T09:47:46.290Z,104.22
2023-06-23T09:48:46.256Z,113.86
2023-06-23T09:49:46.238Z,120.49
2023-06-23T09:50:46.242Z,121.82
2023-06-23T09:51:46.230Z,123.80
2023-06-23T09:52:46.237Z,130.29
2023-06-23T09:53:46.206Z,129.98
2023-06-23T09:54:46.239Z,135.71
2023-06-23T09:55:46.199Z,134.26
2023-06-23T09:56:46.177Z,141.23
2023-06-23T09:57:46.389Z,137.77
2023-06-23T09:58:46.211Z,138.95
2023-06-23T09:59:46.221Z,141.79
2023-06-23T10:00:46.187Z,142.89
2023-06-23T10:01:46.165Z,141.15
2023-06-23T10:02:47.029Z,144.39
2023-06-23T10:03:46.408Z,146.95
2023-06-23T10:04:46.294Z,148.18
2023-06-23T10:05:46.341Z,146.01
2023-06-23T10:06:46.397Z,152.19
2023-06-23T10:07:46.467Z,158.64
2023-06-23T10:08:46.565Z,164.92
2023-06-23T10:09:46.585Z,168.44
2023-06-23T10:10:46.660Z,162.11
2023-06-23T10:11:46.697Z,162.22
2023-06-23T10:12:46.757Z,168.24
2023-06-23T10:13:46.982Z,171.96
2023-06-23T10:14:46.904Z,168.92
2023-06-23T10:15:46.911Z,167.14
2023-06-23T10:16:46.931Z,164.28
2023-06-23T10:17:46.994Z,165.38
2023-06-23T10:18:47.094Z,164.32
2023-06-23T10:19:47.091Z,163.10
2023-06-23T10:20:47.133Z,173.63
2023-06-23T10:21:47.165Z,170.38
2023-06-23T10:22:47.240Z,166.49
2023-06-23T10:23:47.211Z,167.79
2023-06-23T10:24:47.266Z,164.21
2023-06-23T10:25:47.290Z,164.81
2023-06-23T10:26:47.292Z,165.89
2023-06-23T10:27:47.330Z,173.90
2023-06-23T10:28:47.314Z,175.87
2023-06-23T10:29:47.366Z,179.34
2023-06-23T10:30:47.359Z,179.40
2023-06-23T10:31:47.415Z,181.47
2023-06-23T10:32:47.448Z,188.83
2023-06-23T10:33:47.402Z,193.81
2023-06-23T10:34:47.458Z,194.56
2023-06-23T10:35:47.492Z,194.11
2023-06-23T10:36:47.492Z,187.89
2023-06-23T10:37:47.582Z,189.44
2023-06-23T10:38:47.609Z,196.14
2023-06-23T10:39:47.631Z,170.24
2023-06-23T10:40:47.722Z,174.67
2023-06-23T10:41:47.713Z,190.58
2023-06-23T10:42:47.783Z,194.86
2023-06-23T10:43:47.774Z,197.66
2023-06-23T10:44:47.830Z,199.30
2023-06-23T10:45:47.826Z,200.00
2023-06-23T10:46:47.888Z,198.60
2023-06-23T10:47:48.026Z,200.00
2023-06-23T10:48:47.985Z,199.10
2023-06-23T10:49:48.060Z,200.00
2023-06-23T10:50:48.068Z,200.00
2023-06-23T10:51:48.139Z,200.00
2023-06-23T10:52:48.160Z,199.42
2023-06-23T10:53:48.220Z,200.00
2023-06-23T10:54:48.323Z,200.00
2023-06-23T10:56:07.730Z,200.36
2023-06-23T10:56:49.371Z,200.49
2023-06-23T10:57:48.324Z,200.66
2023-06-23T10:58:48.329Z,201.60
2023-06-23T10:59:48.339Z,202.31
2023-06-23T11:00:48.362Z,201.98
2023-06-23T11:01:48.329Z,200.00
2023-06-23T11:02:48.319Z,197.37
2023-06-23T11:03:48.267Z,199.37
2023-06-23T11:04:48.333Z,199.07
2023-06-23T11:05:48.308Z,198.97
2023-06-23T11:06:48.390Z,198.39
2023-06-23T11:07:48.355Z,198.95
2023-06-23T11:08:48.401Z,198.88
2023-06-23T11:09:48.490Z,198.68
2023-06-23T11:10:48.512Z,198.20
2023-06-23T11:11:48.491Z,198.40
2023-06-23T11:12:48.522Z,200.00
2023-06-23T11:13:48.578Z,199.07
2023-06-23T11:14:48.664Z,198.06
2023-06-23T11:15:48.622Z,196.97
2023-06-23T11:16:48.680Z,198.79
2023-06-23T11:17:48.884Z,198.66
2023-06-23T11:18:48.819Z,195.46
2023-06-23T11:19:48.863Z,194.77
2023-06-23T11:20:48.940Z,194.60
2023-06-23T11:21:48.974Z,194.28
2023-06-23T11:22:48.993Z,194.82
2023-06-23T11:23:49.074Z,193.51
2023-06-23T11:24:49.130Z,193.33
2023-06-23T11:25:49.163Z,193.68
2023-06-23T11:26:49.175Z,194.74
2023-06-23T11:27:49.212Z,194.23
2023-06-23T11:28:49.277Z,195.80
2023-06-23T11:29:49.299Z,194.46
2023-06-23T11:30:49.378Z,197.52
2023-06-23T11:31:49.366Z,197.02
2023-06-23T11:32:49.419Z,189.56
2023-06-23T11:33:49.459Z,182.74
2023-06-23T11:34:49.485Z,179.32
2023-06-23T11:35:49.489Z,177.85
2023-06-23T11:36:49.526Z,176.02
2023-06-23T11:37:49.540Z,174.99
2023-06-23T11:38:49.570Z,173.20
2023-06-23T11:39:49.574Z,168.95
2023-06-23T11:40:49.568Z,166.34
2023-06-23T11:41:49.599Z,163.86
2023-06-23T11:42:49.618Z,164.49
2023-06-23T11:43:49.686Z,162.26
2023-06-23T11:44:49.762Z,160.59
2023-06-23T11:45:49.741Z,155.91
2023-06-23T11:46:49.775Z,153.77
2023-06-23T11:47:49.954Z,152.39
2023-06-23T11:48:49.904Z,149.89
2023-06-23T11:49:49.979Z,151.92
2023-06-23T11:50:50.026Z,150.58
2023-06-23T11:51:50.088Z,147.07
2023-06-23T11:52:50.166Z,144.61
2023-06-23T11:53:50.232Z,141.65
2023-06-23T11:54:50.293Z,140.68
2023-06-23T11:55:50.363Z,141.81
2023-06-23T11:56:50.407Z,141.53
2023-06-23T11:57:50.472Z,138.67
2023-06-23T11:58:50.524Z,135.36
2023-06-23T11:59:50.594Z,131.77
2023-06-23T12:00:50.641Z,131.81
2023-06-23T12:01:50.716Z,130.20
2023-06-23T12:02:50.913Z,129.89
2023-06-23T12:03:51.153Z,125.88
2023-06-23T12:04:50.974Z,126.09
2023-06-23T12:05:50.812Z,122.68
2023-06-23T12:06:50.797Z,120.29
2023-06-23T12:07:50.818Z,122.30
2023-06-23T12:08:50.909Z,118.20
2023-06-23T12:09:52.535Z,117.60
2023-06-23T12:10:50.789Z,117.35
2023-06-23T12:11:50.821Z,116.73
2023-06-23T12:12:50.858Z,113.80
2023-06-23T12:13:50.841Z,114.42
2023-06-23T12:14:50.828Z,111.24
2023-06-23T12:15:54.221Z,110.03
2023-06-23T12:16:51.813Z,110.04
2023-06-23T12:17:50.829Z,105.05
2023-06-23T12:18:50.761Z,104.28
2023-06-23T12:19:52.759Z,105.00
2023-06-23T12:20:50.764Z,103.80
2023-06-23T12:21:50.764Z,102.31
2023-06-23T12:22:50.763Z,101.81
2023-06-23T12:23:50.771Z,100.68
2023-06-23T12:24:50.723Z,100.10
2023-06-23T12:25:50.738Z,99.20
2023-06-23T12:26:50.737Z,97.64
2023-06-23T12:27:50.722Z,94.64
2023-06-23T12:28:50.722Z,94.87
2023-06-23T12:29:50.702Z,93.15
2023-06-23T12:30:50.714Z,88.63
2023-06-23T12:31:50.794Z,87.94
2023-06-23T12:32:50.737Z,87.90
2023-06-23T12:33:50.786Z,85.26
2023-06-23T12:34:50.689Z,83.25
2023-06-23T12:37:07.868Z,50.00
2023-06-23T12:38:07.844Z,50.00
2023-06-23T12:39:07.835Z,50.00
2023-06-23T12:40:07.845Z,50.00